sensor_id;sensor_type;location;lat;lon;timestamp;temperature;humidity
5200;DHT22;2619;47.868;11.892;2024-01-30T00:01:15;-2.70;99.90
5200;DHT22;2619;47.868;11.892;2024-01-30T00:03:41;-2.80;99.90
5200;DHT22;2619;47.868;11.892;2024-01-30T00:06:07;-2.90;99.90
5200;DHT22;2619;47.868;11.892;2024-01-30T00:08:33;-2.90;99.90
5200;DHT22;2619;47.868;11.892;2024-01-30T00:10:59;-2.90;99.90
5200;DHT22;2619;47.868;11.892;2024-01-30T00:13:24;-2.90;99.90
5200;DHT22;2619;47.868;11.892;2024-01-30T00:15:50;-2.90;99.90
5200;DHT22;2619;47.868;11.892;2024-01-30T00:18:15;-2.80;99.90
5200;DHT22;2619;47.868;11.892;2024-01-30T00:20:41;-2.90;99.90
5200;DHT22;2619;47.868;11.892;2024-01-30T00:23:08;-2.90;99.90
5200;DHT22;2619;47.868;11.892;2024-01-30T00:25:33;-2.90;99.90
5200;DHT22;2619;47.868;11.892;2024-01-30T00:27:59;-2.90;99.90
5200;DHT22;2619;47.868;11.892;2024-01-30T00:30:25;-2.90;99.90
5200;DHT22;2619;47.868;11.892;2024-01-30T00:32:50;-2.90;99.90
5200;DHT22;2619;47.868;11.892;2024-01-30T00:35:16;-2.80;99.90
5200;DHT22;2619;47.868;11.892;2024-01-30T00:37:41;-2.80;99.90
5200;DHT22;2619;47.868;11.892;2024-01-30T00:40:07;-2.80;99.90
5200;DHT22;2619;47.868;11.892;2024-01-30T00:42:35;-2.80;99.90
5200;DHT22;2619;47.868;11.892;2024-01-30T00:45:01;-2.80;99.90
5200;DHT22;2619;47.868;11.892;2024-01-30T00:47:27;-2.80;99.90
5200;DHT22;2619;47.868;11.892;2024-01-30T00:49:54;-2.80;99.90
5200;DHT22;2619;47.868;11.892;2024-01-30T00:52:20;-2.80;99.90
5200;DHT22;2619;47.868;11.892;2024-01-30T00:54:45;-2.70;99.90
5200;DHT22;2619;47.868;11.892;2024-01-30T00:57:11;-2.60;99.90
5200;DHT22;2619;47.868;11.892;2024-01-30T00:59:36;-2.60;99.90
5200;DHT22;2619;47.868;11.892;2024-01-30T01:02:02;-2.50;99.90
5200;DHT22;2619;47.868;11.892;2024-01-30T01:04:27;-2.40;99.90
5200;DHT22;2619;47.868;11.892;2024-01-30T01:06:53;-2.50;99.90
5200;DHT22;2619;47.868;11.892;2024-01-30T01:09:18;-2.40;99.90
5200;DHT22;2619;47.868;11.892;2024-01-30T01:11:44;-2.40;99.90
5200;DHT22;2619;47.868;11.892;2024-01-30T01:14:10;-2.50;99.90
5200;DHT22;2619;47.868;11.892;2024-01-30T01:16:35;-2.60;99.90
5200;DHT22;2619;47.868;11.892;2024-01-30T01:19:01;-2.60;99.90
5200;DHT22;2619;47.868;11.892;2024-01-30T01:21:26;-2.70;99.90
5200;DHT22;2619;47.868;11.892;2024-01-30T01:23:52;-2.70;99.90
5200;DHT22;2619;47.868;11.892;2024-01-30T01:26:18;-2.70;99.90
5200;DHT22;2619;47.868;11.892;2024-01-30T01:28:43;-2.70;99.90
5200;DHT22;2619;47.868;11.892;2024-01-30T01:31:09;-2.70;99.90
5200;DHT22;2619;47.868;11.892;2024-01-30T01:33:34;-2.60;99.90
5200;DHT22;2619;47.868;11.892;2024-01-30T01:36:02;-2.60;99.90
5200;DHT22;2619;47.868;11.892;2024-01-30T01:38:28;-2.60;99.90
5200;DHT22;2619;47.868;11.892;2024-01-30T01:40:54;-2.70;99.90
5200;DHT22;2619;47.868;11.892;2024-01-30T01:43:19;-2.80;99.90
5200;DHT22;2619;47.868;11.892;2024-01-30T01:45:45;-2.90;99.90
5200;DHT22;2619;47.868;11.892;2024-01-30T01:48:11;-2.90;99.90
5200;DHT22;2619;47.868;11.892;2024-01-30T01:50:38;-2.90;99.90
5200;DHT22;2619;47.868;11.892;2024-01-30T01:53:06;-2.80;99.90
5200;DHT22;2619;47.868;11.892;2024-01-30T01:55:33;-2.80;99.90
5200;DHT22;2619;47.868;11.892;2024-01-30T01:58:00;-2.80;99.90
5200;DHT22;2619;47.868;11.892;2024-01-30T02:00:26;-2.70;99.90
5200;DHT22;2619;47.868;11.892;2024-01-30T02:02:53;-2.80;99.90
5200;DHT22;2619;47.868;11.892;2024-01-30T02:05:20;-2.70;99.90
5200;DHT22;2619;47.868;11.892;2024-01-30T02:07:46;-2.70;99.90
5200;DHT22;2619;47.868;11.892;2024-01-30T02:10:13;-2.70;99.90
5200;DHT22;2619;47.868;11.892;2024-01-30T02:12:40;-2.70;99.90
5200;DHT22;2619;47.868;11.892;2024-01-30T02:15:06;-2.70;99.90
5200;DHT22;2619;47.868;11.892;2024-01-30T02:17:33;-2.70;99.90
5200;DHT22;2619;47.868;11.892;2024-01-30T02:19:59;-2.70;99.90
5200;DHT22;2619;47.868;11.892;2024-01-30T02:22:25;-2.70;99.90
5200;DHT22;2619;47.868;11.892;2024-01-30T02:24:50;-2.70;99.90
5200;DHT22;2619;47.868;11.892;2024-01-30T02:27:16;-2.80;99.90
5200;DHT22;2619;47.868;11.892;2024-01-30T02:29:41;-2.80;99.90
5200;DHT22;2619;47.868;11.892;2024-01-30T02:32:07;-2.90;99.90
5200;DHT22;2619;47.868;11.892;2024-01-30T02:34:33;-2.90;99.90
5200;DHT22;2619;47.868;11.892;2024-01-30T02:36:59;-2.90;99.90
5200;DHT22;2619;47.868;11.892;2024-01-30T02:39:24;-3.00;99.90
5200;DHT22;2619;47.868;11.892;2024-01-30T02:41:50;-3.00;99.90
5200;DHT22;2619;47.868;11.892;2024-01-30T02:44:15;-3.00;99.90
5200;DHT22;2619;47.868;11.892;2024-01-30T02:46:41;-3.00;99.90
5200;DHT22;2619;47.868;11.892;2024-01-30T02:49:07;-3.00;99.90
5200;DHT22;2619;47.868;11.892;2024-01-30T02:51:32;-3.00;99.90
5200;DHT22;2619;47.868;11.892;2024-01-30T02:53:58;-3.00;99.90
5200;DHT22;2619;47.868;11.892;2024-01-30T02:56:23;-3.10;99.90
5200;DHT22;2619;47.868;11.892;2024-01-30T02:58:49;-3.20;99.90
5200;DHT22;2619;47.868;11.892;2024-01-30T03:01:14;-3.10;99.90
5200;DHT22;2619;47.868;11.892;2024-01-30T03:03:40;-3.10;99.90
5200;DHT22;2619;47.868;11.892;2024-01-30T03:06:06;-3.00;99.90
5200;DHT22;2619;47.868;11.892;2024-01-30T03:08:32;-3.00;99.90
5200;DHT22;2619;47.868;11.892;2024-01-30T03:11:00;-2.90;99.90
5200;DHT22;2619;47.868;11.892;2024-01-30T03:13:25;-2.80;99.90
5200;DHT22;2619;47.868;11.892;2024-01-30T03:15:51;-2.80;99.90
5200;DHT22;2619;47.868;11.892;2024-01-30T03:18:17;-2.80;99.90
5200;DHT22;2619;47.868;11.892;2024-01-30T03:20:43;-2.70;99.90
5200;DHT22;2619;47.868;11.892;2024-01-30T03:23:09;-2.80;99.90
5200;DHT22;2619;47.868;11.892;2024-01-30T03:25:34;-2.80;99.90
5200;DHT22;2619;47.868;11.892;2024-01-30T03:28:00;-2.80;99.90
5200;DHT22;2619;47.868;11.892;2024-01-30T03:30:25;-2.90;99.90
5200;DHT22;2619;47.868;11.892;2024-01-30T03:32:51;-2.90;99.90
5200;DHT22;2619;47.868;11.892;2024-01-30T03:35:18;-2.90;99.90
5200;DHT22;2619;47.868;11.892;2024-01-30T03:37:43;-2.80;99.90
5200;DHT22;2619;47.868;11.892;2024-01-30T03:40:09;-2.80;99.90
5200;DHT22;2619;47.868;11.892;2024-01-30T03:42:35;-2.80;99.90
5200;DHT22;2619;47.868;11.892;2024-01-30T03:45:01;-2.80;99.90
5200;DHT22;2619;47.868;11.892;2024-01-30T03:47:27;-2.80;99.90
5200;DHT22;2619;47.868;11.892;2024-01-30T03:49:53;-2.70;99.90
5200;DHT22;2619;47.868;11.892;2024-01-30T03:52:18;-2.60;99.90
5200;DHT22;2619;47.868;11.892;2024-01-30T03:54:44;-2.70;99.90
5200;DHT22;2619;47.868;11.892;2024-01-30T03:57:09;-2.70;99.90
5200;DHT22;2619;47.868;11.892;2024-01-30T03:59:35;-2.70;99.90
5200;DHT22;2619;47.868;11.892;2024-01-30T04:02:01;-2.70;99.90
5200;DHT22;2619;47.868;11.892;2024-01-30T04:04:26;-2.70;99.90
5200;DHT22;2619;47.868;11.892;2024-01-30T04:06:52;-2.70;99.90
5200;DHT22;2619;47.868;11.892;2024-01-30T04:09:17;-2.70;99.90
5200;DHT22;2619;47.868;11.892;2024-01-30T04:11:44;-2.80;99.90
5200;DHT22;2619;47.868;11.892;2024-01-30T04:14:10;-2.80;99.90
5200;DHT22;2619;47.868;11.892;2024-01-30T04:16:35;-2.90;99.90
5200;DHT22;2619;47.868;11.892;2024-01-30T04:19:01;-3.00;99.90
5200;DHT22;2619;47.868;11.892;2024-01-30T04:21:27;-3.00;99.90
5200;DHT22;2619;47.868;11.892;2024-01-30T04:23:53;-3.10;99.90
5200;DHT22;2619;47.868;11.892;2024-01-30T04:26:18;-3.10;99.90
5200;DHT22;2619;47.868;11.892;2024-01-30T04:28:45;-3.10;99.90
5200;DHT22;2619;47.868;11.892;2024-01-30T04:31:11;-3.20;99.90
5200;DHT22;2619;47.868;11.892;2024-01-30T04:33:37;-3.20;99.90
5200;DHT22;2619;47.868;11.892;2024-01-30T04:36:03;-3.10;99.90
5200;DHT22;2619;47.868;11.892;2024-01-30T04:38:29;-3.20;99.90
5200;DHT22;2619;47.868;11.892;2024-01-30T04:40:54;-3.20;99.90
5200;DHT22;2619;47.868;11.892;2024-01-30T04:43:20;-3.20;99.90
5200;DHT22;2619;47.868;11.892;2024-01-30T04:45:47;-3.30;99.90
5200;DHT22;2619;47.868;11.892;2024-01-30T04:48:12;-3.30;99.90
5200;DHT22;2619;47.868;11.892;2024-01-30T04:50:38;-3.30;99.90
5200;DHT22;2619;47.868;11.892;2024-01-30T04:53:03;-3.30;99.90
5200;DHT22;2619;47.868;11.892;2024-01-30T04:55:29;-3.30;99.90
5200;DHT22;2619;47.868;11.892;2024-01-30T04:57:54;-3.40;99.90
5200;DHT22;2619;47.868;11.892;2024-01-30T05:00:20;-3.40;99.90
5200;DHT22;2619;47.868;11.892;2024-01-30T05:02:46;-3.40;99.90
5200;DHT22;2619;47.868;11.892;2024-01-30T05:05:11;-3.40;99.90
5200;DHT22;2619;47.868;11.892;2024-01-30T05:07:38;-3.40;99.90
5200;DHT22;2619;47.868;11.892;2024-01-30T05:10:04;-3.40;99.90
5200;DHT22;2619;47.868;11.892;2024-01-30T05:12:30;-3.30;99.90
5200;DHT22;2619;47.868;11.892;2024-01-30T05:14:55;-3.40;99.90
5200;DHT22;2619;47.868;11.892;2024-01-30T05:17:21;-3.40;99.90
5200;DHT22;2619;47.868;11.892;2024-01-30T05:19:46;-3.40;99.90
5200;DHT22;2619;47.868;11.892;2024-01-30T05:22:12;-3.40;99.90
5200;DHT22;2619;47.868;11.892;2024-01-30T05:24:41;-3.40;99.90
5200;DHT22;2619;47.868;11.892;2024-01-30T05:27:07;-3.40;99.90
5200;DHT22;2619;47.868;11.892;2024-01-30T05:29:33;-3.50;99.90
5200;DHT22;2619;47.868;11.892;2024-01-30T05:31:59;-3.50;99.90
5200;DHT22;2619;47.868;11.892;2024-01-30T05:34:24;-3.50;99.90
5200;DHT22;2619;47.868;11.892;2024-01-30T05:36:50;-3.40;99.90
5200;DHT22;2619;47.868;11.892;2024-01-30T05:39:15;-3.30;99.90
5200;DHT22;2619;47.868;11.892;2024-01-30T05:41:41;-3.20;99.90
5200;DHT22;2619;47.868;11.892;2024-01-30T05:44:06;-3.20;99.90
5200;DHT22;2619;47.868;11.892;2024-01-30T05:46:33;-3.30;99.90
5200;DHT22;2619;47.868;11.892;2024-01-30T05:48:58;-3.30;99.90
5200;DHT22;2619;47.868;11.892;2024-01-30T05:51:24;-3.30;99.90
5200;DHT22;2619;47.868;11.892;2024-01-30T05:53:50;-3.30;99.90
5200;DHT22;2619;47.868;11.892;2024-01-30T05:56:15;-3.30;99.90
5200;DHT22;2619;47.868;11.892;2024-01-30T05:58:41;-3.30;99.90
5200;DHT22;2619;47.868;11.892;2024-01-30T06:01:08;-3.20;99.90
5200;DHT22;2619;47.868;11.892;2024-01-30T06:03:34;-3.10;99.90
5200;DHT22;2619;47.868;11.892;2024-01-30T06:06:00;-3.00;99.90
5200;DHT22;2619;47.868;11.892;2024-01-30T06:08:26;-3.00;99.90
5200;DHT22;2619;47.868;11.892;2024-01-30T06:10:51;-3.00;99.90
5200;DHT22;2619;47.868;11.892;2024-01-30T06:13:17;-3.00;99.90
5200;DHT22;2619;47.868;11.892;2024-01-30T06:15:43;-3.00;99.90
5200;DHT22;2619;47.868;11.892;2024-01-30T06:18:08;-2.90;99.90
5200;DHT22;2619;47.868;11.892;2024-01-30T06:20:34;-2.90;99.90
5200;DHT22;2619;47.868;11.892;2024-01-30T06:23:00;-2.90;99.90
5200;DHT22;2619;47.868;11.892;2024-01-30T06:25:26;-2.90;99.90
5200;DHT22;2619;47.868;11.892;2024-01-30T06:27:51;-2.90;99.90
5200;DHT22;2619;47.868;11.892;2024-01-30T06:30:17;-2.90;99.90
5200;DHT22;2619;47.868;11.892;2024-01-30T06:32:43;-2.90;99.90
5200;DHT22;2619;47.868;11.892;2024-01-30T06:35:09;-2.90;99.90
5200;DHT22;2619;47.868;11.892;2024-01-30T06:37:36;-2.90;99.90
5200;DHT22;2619;47.868;11.892;2024-01-30T06:40:01;-2.80;99.90
5200;DHT22;2619;47.868;11.892;2024-01-30T06:42:27;-2.80;99.90
5200;DHT22;2619;47.868;11.892;2024-01-30T06:44:53;-2.90;99.90
5200;DHT22;2619;47.868;11.892;2024-01-30T06:47:18;-3.00;99.90
5200;DHT22;2619;47.868;11.892;2024-01-30T06:49:44;-3.00;99.90
5200;DHT22;2619;47.868;11.892;2024-01-30T06:52:10;-3.00;99.90
5200;DHT22;2619;47.868;11.892;2024-01-30T06:54:36;-3.00;99.90
5200;DHT22;2619;47.868;11.892;2024-01-30T06:57:02;-2.90;99.90
5200;DHT22;2619;47.868;11.892;2024-01-30T06:59:28;-2.90;99.90
5200;DHT22;2619;47.868;11.892;2024-01-30T07:01:53;-2.90;99.90
5200;DHT22;2619;47.868;11.892;2024-01-30T07:04:19;-2.90;99.90
5200;DHT22;2619;47.868;11.892;2024-01-30T07:06:45;-2.80;99.90
5200;DHT22;2619;47.868;11.892;2024-01-30T07:09:10;-2.70;99.90
5200;DHT22;2619;47.868;11.892;2024-01-30T07:11:36;-2.70;99.90
5200;DHT22;2619;47.868;11.892;2024-01-30T07:14:01;-2.50;99.90
5200;DHT22;2619;47.868;11.892;2024-01-30T07:16:30;-2.50;99.90
5200;DHT22;2619;47.868;11.892;2024-01-30T07:18:55;-2.30;99.90
5200;DHT22;2619;47.868;11.892;2024-01-30T07:21:22;-2.20;99.90
5200;DHT22;2619;47.868;11.892;2024-01-30T07:23:56;-2.20;99.90
5200;DHT22;2619;47.868;11.892;2024-01-30T07:26:21;-2.10;99.90
5200;DHT22;2619;47.868;11.892;2024-01-30T07:28:47;-2.00;99.90
5200;DHT22;2619;47.868;11.892;2024-01-30T07:31:13;-2.00;99.90
5200;DHT22;2619;47.868;11.892;2024-01-30T07:33:38;-1.90;99.90
5200;DHT22;2619;47.868;11.892;2024-01-30T07:36:04;-1.80;99.90
5200;DHT22;2619;47.868;11.892;2024-01-30T07:38:31;-1.80;99.90
5200;DHT22;2619;47.868;11.892;2024-01-30T07:40:57;-1.70;99.90
5200;DHT22;2619;47.868;11.892;2024-01-30T07:43:23;-1.60;99.90
5200;DHT22;2619;47.868;11.892;2024-01-30T07:45:48;-1.60;99.90
5200;DHT22;2619;47.868;11.892;2024-01-30T07:48:14;-1.50;99.90
5200;DHT22;2619;47.868;11.892;2024-01-30T07:50:40;-1.40;99.90
5200;DHT22;2619;47.868;11.892;2024-01-30T07:53:05;-1.30;99.90
5200;DHT22;2619;47.868;11.892;2024-01-30T07:55:31;-1.20;99.90
5200;DHT22;2619;47.868;11.892;2024-01-30T07:57:58;-1.20;99.90
5200;DHT22;2619;47.868;11.892;2024-01-30T08:00:26;-1.20;99.90
5200;DHT22;2619;47.868;11.892;2024-01-30T08:02:54;-1.20;99.90
5200;DHT22;2619;47.868;11.892;2024-01-30T08:05:20;-1.00;99.90
5200;DHT22;2619;47.868;11.892;2024-01-30T08:07:48;-0.90;99.90
5200;DHT22;2619;47.868;11.892;2024-01-30T08:10:14;-0.90;99.90
5200;DHT22;2619;47.868;11.892;2024-01-30T08:12:40;-0.80;99.90
5200;DHT22;2619;47.868;11.892;2024-01-30T08:15:07;-0.70;99.90
5200;DHT22;2619;47.868;11.892;2024-01-30T08:17:33;-0.60;99.90
5200;DHT22;2619;47.868;11.892;2024-01-30T08:19:59;-0.60;99.90
5200;DHT22;2619;47.868;11.892;2024-01-30T08:22:24;-0.50;99.90
5200;DHT22;2619;47.868;11.892;2024-01-30T08:24:50;-0.50;99.90
5200;DHT22;2619;47.868;11.892;2024-01-30T08:27:16;-0.40;99.90
5200;DHT22;2619;47.868;11.892;2024-01-30T08:29:42;-0.20;99.90
5200;DHT22;2619;47.868;11.892;2024-01-30T08:32:08;-0.20;99.90
5200;DHT22;2619;47.868;11.892;2024-01-30T08:34:33;-0.10;99.90
5200;DHT22;2619;47.868;11.892;2024-01-30T08:36:59;-0.10;99.90
5200;DHT22;2619;47.868;11.892;2024-01-30T08:39:25;0.10;99.90
5200;DHT22;2619;47.868;11.892;2024-01-30T08:41:50;0.20;99.90
5200;DHT22;2619;47.868;11.892;2024-01-30T08:44:16;0.30;99.90
5200;DHT22;2619;47.868;11.892;2024-01-30T08:46:43;0.50;99.90
5200;DHT22;2619;47.868;11.892;2024-01-30T08:49:10;0.70;99.90
5200;DHT22;2619;47.868;11.892;2024-01-30T08:51:35;1.00;99.90
5200;DHT22;2619;47.868;11.892;2024-01-30T08:54:02;1.10;99.90
5200;DHT22;2619;47.868;11.892;2024-01-30T08:56:28;1.30;99.90
5200;DHT22;2619;47.868;11.892;2024-01-30T08:58:53;1.40;99.90
5200;DHT22;2619;47.868;11.892;2024-01-30T09:01:19;1.70;99.90
5200;DHT22;2619;47.868;11.892;2024-01-30T09:03:45;1.90;99.90
5200;DHT22;2619;47.868;11.892;2024-01-30T09:06:12;2.10;99.90
5200;DHT22;2619;47.868;11.892;2024-01-30T09:08:38;2.20;99.90
5200;DHT22;2619;47.868;11.892;2024-01-30T09:11:13;2.40;99.90
5200;DHT22;2619;47.868;11.892;2024-01-30T09:13:39;2.50;99.90
5200;DHT22;2619;47.868;11.892;2024-01-30T09:16:05;2.80;99.90
5200;DHT22;2619;47.868;11.892;2024-01-30T09:18:31;2.80;99.90
5200;DHT22;2619;47.868;11.892;2024-01-30T09:20:57;3.00;99.90
5200;DHT22;2619;47.868;11.892;2024-01-30T09:23:23;3.10;99.90
5200;DHT22;2619;47.868;11.892;2024-01-30T09:25:50;3.40;99.90
5200;DHT22;2619;47.868;11.892;2024-01-30T09:28:16;3.50;99.90
5200;DHT22;2619;47.868;11.892;2024-01-30T09:30:42;3.70;99.90
5200;DHT22;2619;47.868;11.892;2024-01-30T09:33:08;3.90;99.90
5200;DHT22;2619;47.868;11.892;2024-01-30T09:35:34;4.10;99.90
5200;DHT22;2619;47.868;11.892;2024-01-30T09:37:59;4.20;99.90
5200;DHT22;2619;47.868;11.892;2024-01-30T09:40:25;4.30;99.90
5200;DHT22;2619;47.868;11.892;2024-01-30T09:42:51;4.40;99.90
5200;DHT22;2619;47.868;11.892;2024-01-30T09:45:24;4.50;99.90
5200;DHT22;2619;47.868;11.892;2024-01-30T09:47:50;4.60;99.90
5200;DHT22;2619;47.868;11.892;2024-01-30T09:50:16;4.80;99.90
5200;DHT22;2619;47.868;11.892;2024-01-30T09:52:43;5.00;99.90
5200;DHT22;2619;47.868;11.892;2024-01-30T09:55:09;5.10;99.90
5200;DHT22;2619;47.868;11.892;2024-01-30T09:57:35;5.30;99.90
5200;DHT22;2619;47.868;11.892;2024-01-30T10:00:02;5.40;99.90
5200;DHT22;2619;47.868;11.892;2024-01-30T10:02:31;5.50;99.90
5200;DHT22;2619;47.868;11.892;2024-01-30T10:04:57;5.70;99.90
5200;DHT22;2619;47.868;11.892;2024-01-30T10:07:22;5.70;99.90
5200;DHT22;2619;47.868;11.892;2024-01-30T10:09:48;5.90;99.90
5200;DHT22;2619;47.868;11.892;2024-01-30T10:12:15;5.90;99.90
5200;DHT22;2619;47.868;11.892;2024-01-30T10:14:41;6.00;99.90
5200;DHT22;2619;47.868;11.892;2024-01-30T10:17:11;6.10;99.90
5200;DHT22;2619;47.868;11.892;2024-01-30T10:19:41;6.20;99.90
5200;DHT22;2619;47.868;11.892;2024-01-30T10:22:07;6.30;99.90
5200;DHT22;2619;47.868;11.892;2024-01-30T10:24:34;6.50;99.90
5200;DHT22;2619;47.868;11.892;2024-01-30T10:27:00;6.60;99.90
5200;DHT22;2619;47.868;11.892;2024-01-30T10:29:27;6.70;99.90
5200;DHT22;2619;47.868;11.892;2024-01-30T10:31:59;6.70;99.90
5200;DHT22;2619;47.868;11.892;2024-01-30T10:34:25;6.80;99.90
5200;DHT22;2619;47.868;11.892;2024-01-30T10:39:28;6.90;99.90
5200;DHT22;2619;47.868;11.892;2024-01-30T10:44:22;7.20;99.90
5200;DHT22;2619;47.868;11.892;2024-01-30T10:47:02;7.30;99.90
5200;DHT22;2619;47.868;11.892;2024-01-30T10:49:28;7.40;99.90
5200;DHT22;2619;47.868;11.892;2024-01-30T10:51:55;7.60;99.90
5200;DHT22;2619;47.868;11.892;2024-01-30T10:54:22;7.80;99.90
5200;DHT22;2619;47.868;11.892;2024-01-30T10:59:23;8.20;99.90
5200;DHT22;2619;47.868;11.892;2024-01-30T11:01:49;8.30;99.90
5200;DHT22;2619;47.868;11.892;2024-01-30T11:04:16;8.20;99.90
5200;DHT22;2619;47.868;11.892;2024-01-30T11:06:42;8.30;99.90
5200;DHT22;2619;47.868;11.892;2024-01-30T11:09:11;8.40;99.90
5200;DHT22;2619;47.868;11.892;2024-01-30T11:11:57;8.50;99.90
5200;DHT22;2619;47.868;11.892;2024-01-30T11:14:28;8.60;99.90
5200;DHT22;2619;47.868;11.892;2024-01-30T11:16:57;8.80;99.90
5200;DHT22;2619;47.868;11.892;2024-01-30T11:19:27;8.90;99.90
5200;DHT22;2619;47.868;11.892;2024-01-30T11:21:53;9.00;99.90
5200;DHT22;2619;47.868;11.892;2024-01-30T11:24:23;9.10;99.90
5200;DHT22;2619;47.868;11.892;2024-01-30T11:26:50;9.10;99.90
5200;DHT22;2619;47.868;11.892;2024-01-30T11:29:23;9.20;99.90
5200;DHT22;2619;47.868;11.892;2024-01-30T11:31:56;9.10;99.90
5200;DHT22;2619;47.868;11.892;2024-01-30T11:34:22;9.00;99.90
5200;DHT22;2619;47.868;11.892;2024-01-30T11:36:52;9.10;99.90
5200;DHT22;2619;47.868;11.892;2024-01-30T11:39:25;8.80;99.90
5200;DHT22;2619;47.868;11.892;2024-01-30T11:41:51;8.80;99.90
5200;DHT22;2619;47.868;11.892;2024-01-30T11:44:21;9.10;99.90
5200;DHT22;2619;47.868;11.892;2024-01-30T11:46:51;9.30;99.90
5200;DHT22;2619;47.868;11.892;2024-01-30T11:49:17;9.30;99.90
5200;DHT22;2619;47.868;11.892;2024-01-30T11:51:45;9.30;99.90
5200;DHT22;2619;47.868;11.892;2024-01-30T11:54:11;9.50;99.90
5200;DHT22;2619;47.868;11.892;2024-01-30T11:56:37;9.70;99.90
5200;DHT22;2619;47.868;11.892;2024-01-30T11:59:04;9.90;99.90
5200;DHT22;2619;47.868;11.892;2024-01-30T12:01:30;10.10;99.90
5200;DHT22;2619;47.868;11.892;2024-01-30T12:03:57;10.20;99.90
5200;DHT22;2619;47.868;11.892;2024-01-30T12:06:23;10.40;99.90
5200;DHT22;2619;47.868;11.892;2024-01-30T12:08:59;10.50;99.90
5200;DHT22;2619;47.868;11.892;2024-01-30T12:11:25;10.40;99.90
5200;DHT22;2619;47.868;11.892;2024-01-30T12:13:52;10.40;99.90
5200;DHT22;2619;47.868;11.892;2024-01-30T12:16:18;10.20;99.90
5200;DHT22;2619;47.868;11.892;2024-01-30T12:18:44;10.20;99.90
5200;DHT22;2619;47.868;11.892;2024-01-30T12:21:09;10.10;99.90
5200;DHT22;2619;47.868;11.892;2024-01-30T12:23:35;9.90;99.90
5200;DHT22;2619;47.868;11.892;2024-01-30T12:26:01;9.70;99.90
5200;DHT22;2619;47.868;11.892;2024-01-30T12:28:29;9.60;99.90
5200;DHT22;2619;47.868;11.892;2024-01-30T12:31:04;9.50;99.90
5200;DHT22;2619;47.868;11.892;2024-01-30T12:33:30;9.40;99.90
5200;DHT22;2619;47.868;11.892;2024-01-30T12:36:01;9.40;99.90
5200;DHT22;2619;47.868;11.892;2024-01-30T12:38:27;9.30;99.90
5200;DHT22;2619;47.868;11.892;2024-01-30T12:40:56;9.20;99.90
5200;DHT22;2619;47.868;11.892;2024-01-30T12:43:25;9.20;99.90
5200;DHT22;2619;47.868;11.892;2024-01-30T12:45:52;9.20;99.90
5200;DHT22;2619;47.868;11.892;2024-01-30T12:48:18;9.30;99.90
5200;DHT22;2619;47.868;11.892;2024-01-30T12:50:43;9.30;99.90
5200;DHT22;2619;47.868;11.892;2024-01-30T12:53:09;9.30;99.90
5200;DHT22;2619;47.868;11.892;2024-01-30T12:55:35;9.30;99.90
5200;DHT22;2619;47.868;11.892;2024-01-30T12:58:00;9.30;99.90
5200;DHT22;2619;47.868;11.892;2024-01-30T13:00:26;9.30;99.90
5200;DHT22;2619;47.868;11.892;2024-01-30T13:02:52;9.30;99.90
5200;DHT22;2619;47.868;11.892;2024-01-30T13:05:18;9.30;99.90
5200;DHT22;2619;47.868;11.892;2024-01-30T13:07:43;9.30;99.90
5200;DHT22;2619;47.868;11.892;2024-01-30T13:10:09;9.30;99.90
5200;DHT22;2619;47.868;11.892;2024-01-30T13:12:35;9.30;99.90
5200;DHT22;2619;47.868;11.892;2024-01-30T13:15:01;9.30;99.90
5200;DHT22;2619;47.868;11.892;2024-01-30T13:17:27;9.30;99.90
5200;DHT22;2619;47.868;11.892;2024-01-30T13:19:53;9.20;99.90
5200;DHT22;2619;47.868;11.892;2024-01-30T13:22:20;9.10;99.90
5200;DHT22;2619;47.868;11.892;2024-01-30T13:24:48;9.00;99.90
5200;DHT22;2619;47.868;11.892;2024-01-30T13:27:13;9.00;99.90
5200;DHT22;2619;47.868;11.892;2024-01-30T13:29:39;9.00;99.90
5200;DHT22;2619;47.868;11.892;2024-01-30T13:32:05;8.90;99.90
5200;DHT22;2619;47.868;11.892;2024-01-30T13:34:31;8.80;99.90
5200;DHT22;2619;47.868;11.892;2024-01-30T13:36:56;8.80;99.90
5200;DHT22;2619;47.868;11.892;2024-01-30T13:39:22;8.70;99.90
5200;DHT22;2619;47.868;11.892;2024-01-30T13:41:48;8.60;99.90
5200;DHT22;2619;47.868;11.892;2024-01-30T13:44:15;8.60;99.90
5200;DHT22;2619;47.868;11.892;2024-01-30T13:46:42;8.60;99.90
5200;DHT22;2619;47.868;11.892;2024-01-30T13:49:07;8.60;99.90
5200;DHT22;2619;47.868;11.892;2024-01-30T13:51:33;8.60;99.90
5200;DHT22;2619;47.868;11.892;2024-01-30T13:53:58;8.60;99.90
5200;DHT22;2619;47.868;11.892;2024-01-30T13:56:24;8.60;99.90
5200;DHT22;2619;47.868;11.892;2024-01-30T13:58:52;8.50;99.90
5200;DHT22;2619;47.868;11.892;2024-01-30T14:01:17;8.50;99.90
5200;DHT22;2619;47.868;11.892;2024-01-30T14:03:43;8.50;99.90
5200;DHT22;2619;47.868;11.892;2024-01-30T14:06:08;8.50;99.90
5200;DHT22;2619;47.868;11.892;2024-01-30T14:08:34;8.50;99.90
5200;DHT22;2619;47.868;11.892;2024-01-30T14:10:59;8.50;99.90
5200;DHT22;2619;47.868;11.892;2024-01-30T14:13:25;8.50;99.90
5200;DHT22;2619;47.868;11.892;2024-01-30T14:15:51;8.40;99.90
5200;DHT22;2619;47.868;11.892;2024-01-30T14:18:18;8.40;99.90
5200;DHT22;2619;47.868;11.892;2024-01-30T14:20:43;8.40;99.90
5200;DHT22;2619;47.868;11.892;2024-01-30T14:23:09;8.30;99.90
5200;DHT22;2619;47.868;11.892;2024-01-30T14:25:35;8.20;99.90
5200;DHT22;2619;47.868;11.892;2024-01-30T14:28:00;8.20;99.90
5200;DHT22;2619;47.868;11.892;2024-01-30T14:30:26;8.30;99.90
5200;DHT22;2619;47.868;11.892;2024-01-30T14:32:51;8.20;99.90
5200;DHT22;2619;47.868;11.892;2024-01-30T14:35:17;8.10;99.90
5200;DHT22;2619;47.868;11.892;2024-01-30T14:37:42;8.00;99.90
5200;DHT22;2619;47.868;11.892;2024-01-30T14:40:08;8.10;99.90
5200;DHT22;2619;47.868;11.892;2024-01-30T14:42:34;8.00;99.90
5200;DHT22;2619;47.868;11.892;2024-01-30T14:45:01;8.10;99.90
5200;DHT22;2619;47.868;11.892;2024-01-30T14:47:27;8.00;99.90
5200;DHT22;2619;47.868;11.892;2024-01-30T14:49:52;7.80;99.90
5200;DHT22;2619;47.868;11.892;2024-01-30T14:52:18;7.60;99.90
5200;DHT22;2619;47.868;11.892;2024-01-30T14:54:44;7.60;99.90
5200;DHT22;2619;47.868;11.892;2024-01-30T14:57:10;7.60;99.90
5200;DHT22;2619;47.868;11.892;2024-01-30T14:59:36;7.50;99.90
5200;DHT22;2619;47.868;11.892;2024-01-30T15:02:02;7.40;99.90
5200;DHT22;2619;47.868;11.892;2024-01-30T15:04:27;7.40;99.90
5200;DHT22;2619;47.868;11.892;2024-01-30T15:06:53;7.30;99.90
5200;DHT22;2619;47.868;11.892;2024-01-30T15:09:19;7.20;99.90
5200;DHT22;2619;47.868;11.892;2024-01-30T15:11:46;7.10;99.90
5200;DHT22;2619;47.868;11.892;2024-01-30T15:14:12;7.00;99.90
5200;DHT22;2619;47.868;11.892;2024-01-30T15:16:38;6.90;99.90
5200;DHT22;2619;47.868;11.892;2024-01-30T15:19:04;6.90;99.90
5200;DHT22;2619;47.868;11.892;2024-01-30T15:21:33;6.90;99.90
5200;DHT22;2619;47.868;11.892;2024-01-30T15:23:58;6.80;99.90
5200;DHT22;2619;47.868;11.892;2024-01-30T15:26:24;6.60;99.90
5200;DHT22;2619;47.868;11.892;2024-01-30T15:28:50;6.40;99.90
5200;DHT22;2619;47.868;11.892;2024-01-30T15:31:16;6.30;99.90
5200;DHT22;2619;47.868;11.892;2024-01-30T15:33:42;6.20;99.90
5200;DHT22;2619;47.868;11.892;2024-01-30T15:36:08;6.10;99.90
5200;DHT22;2619;47.868;11.892;2024-01-30T15:38:34;5.90;99.90
5200;DHT22;2619;47.868;11.892;2024-01-30T15:41:00;5.80;99.90
5200;DHT22;2619;47.868;11.892;2024-01-30T15:43:26;5.70;99.90
5200;DHT22;2619;47.868;11.892;2024-01-30T15:45:52;5.60;99.90
5200;DHT22;2619;47.868;11.892;2024-01-30T15:48:21;5.60;99.90
5200;DHT22;2619;47.868;11.892;2024-01-30T15:50:47;5.40;99.90
5200;DHT22;2619;47.868;11.892;2024-01-30T15:53:12;5.20;99.90